Seacod — DDPW — position and weather

sailwx.info

Track history (hours):
 
Tides and Currents Weather Stations Pressure Air Temp Water Temp Dewpoint Dewpoint Depression Visibility Wind Speed Wind Dir Waves Ship Positions

Seacod

Last reported at 2015-Jul-26 03:08 UTC. Time now 2015-Aug-01 03:36 UTC.
Position N 36°51' E 015°23'.

Length 188 m; draft 7.6 m.

Type: Ship. MMSI: 218019000.

Date/timePositionNaut miles runAvg speedWind from/ knotsBaromVisibWave heightAir tempDewpointWater temp
2015-Jul-26 03:08N 36°51' E 015°23'914.2
2015-Jul-26 02:31N 36°42' E 015°20'1313.7
2015-Jul-26 01:33N 36°31' E 015°12'1414.5
2015-Jul-26 00:33N 36°29' E 014°54'1514.7
2015-Jul-25 23:33N 36°29' E 014°36'1414.4
2015-Jul-25 22:33N 36°34' E 014°19'1414.5
2015-Jul-25 21:34N 36°37' E 014°02'1514.9
2015-Jul-25 20:33N 36°41' E 013°44'1515.3
2015-Jul-25 19:33N 36°45' E 013°26'1515.3
2015-Jul-25 18:33N 36°50' E 013°07'1515.3
2015-Jul-25 17:33N 36°54' E 012°49'1515.2
2015-Jul-25 16:33N 36°58' E 012°30'1515.0
2015-Jul-25 15:33N 37°03' E 012°13'35015.2
2015-Jul-24 16:31N 38°39' E 005°06'5915.0
2015-Jul-24 12:33N 38°53' E 003°52'1715.1
2015-Jul-24 11:27N 38°57' E 003°32'1415.3
2015-Jul-24 10:32N 39°01' E 003°14'1919.1
2015-Jul-24 09:33N 39°05' E 002°51'1111.3
2015-Jul-24 08:33N 39°10' E 002°37'1515.2
2015-Jul-24 07:33N 39°15' E 002°19'1514.9
2015-Jul-24 06:33N 39°20' E 002°01'1514.8
2015-Jul-24 05:32N 39°25' E 001°42'84 2.4
2015-Jul-22 19:06N 39°57' E 000°01'77 4.6
2015-Jul-22 02:18N 38°43' E 000°28'1013.6
2015-Jul-22 01:32N 38°34' E 000°21'1413.9
2015-Jul-22 00:30N 38°22' E 000°11'1314.1
2015-Jul-21 23:33N 38°11' E 000°01'1413.8
2015-Jul-21 22:33N 37°60' W 000°08'1613.8
2015-Jul-21 21:24N 37°46' W 000°20'1213.8
2015-Jul-21 20:33N 37°37' W 000°28'1513.7
2015-Jul-21 19:27N 37°26' W 000°41'1313.9
2015-Jul-21 18:32N 37°17' W 000°53'4013.4
2015-Jul-21 15:32N 36°50' W 001°31'1613.4
2015-Jul-21 14:20N 36°40' W 001°46'2413.2
2015-Jul-21 12:29N 36°24' W 002°08'25813.6
2015-Jul-20 17:30N 35°15' W 007°15'1213.1
2015-Jul-20 16:33N 35°07' W 007°26'1313.0
2015-Jul-20 15:33N 34°59' W 007°39'2613.0
2015-Jul-20 13:33N 34°42' W 008°03'  
Track history (hours):
 
Tides and Currents Weather Stations Pressure Air Temp Water Temp Dewpoint Dewpoint Depression Visibility Wind Speed Wind Dir Waves Ship Positions

Seacod

Last reported at 2015-Jul-26 03:08 UTC. Time now 2015-Aug-01 03:36 UTC.
Position N 36°51' E 015°23'.

Length 188 m; draft 7.6 m.

Type: Ship. MMSI: 218019000.

Date/timePositionNaut miles runAvg speedWind from/ knotsBaromVisibWave heightAir tempDewpointWater temp
2015-Jul-26 03:08N 36°51' E 015°23'914.2
2015-Jul-26 02:31N 36°42' E 015°20'1313.7
2015-Jul-26 01:33N 36°31' E 015°12'1414.5
2015-Jul-26 00:33N 36°29' E 014°54'1514.7
2015-Jul-25 23:33N 36°29' E 014°36'1414.4
2015-Jul-25 22:33N 36°34' E 014°19'1414.5
2015-Jul-25 21:34N 36°37' E 014°02'1514.9
2015-Jul-25 20:33N 36°41' E 013°44'1515.3
2015-Jul-25 19:33N 36°45' E 013°26'1515.3
2015-Jul-25 18:33N 36°50' E 013°07'1515.3
2015-Jul-25 17:33N 36°54' E 012°49'1515.2
2015-Jul-25 16:33N 36°58' E 012°30'1515.0
2015-Jul-25 15:33N 37°03' E 012°13'35015.2
2015-Jul-24 16:31N 38°39' E 005°06'5915.0
2015-Jul-24 12:33N 38°53' E 003°52'1715.1
2015-Jul-24 11:27N 38°57' E 003°32'1415.3
2015-Jul-24 10:32N 39°01' E 003°14'1919.1
2015-Jul-24 09:33N 39°05' E 002°51'1111.3
2015-Jul-24 08:33N 39°10' E 002°37'1515.2
2015-Jul-24 07:33N 39°15' E 002°19'1514.9
2015-Jul-24 06:33N 39°20' E 002°01'1514.8
2015-Jul-24 05:32N 39°25' E 001°42'84 2.4
2015-Jul-22 19:06N 39°57' E 000°01'77 4.6
2015-Jul-22 02:18N 38°43' E 000°28'1013.6
2015-Jul-22 01:32N 38°34' E 000°21'1413.9
2015-Jul-22 00:30N 38°22' E 000°11'1314.1
2015-Jul-21 23:33N 38°11' E 000°01'1413.8
2015-Jul-21 22:33N 37°60' W 000°08'1613.8
2015-Jul-21 21:24N 37°46' W 000°20'1213.8
2015-Jul-21 20:33N 37°37' W 000°28'1513.7
2015-Jul-21 19:27N 37°26' W 000°41'1313.9
2015-Jul-21 18:32N 37°17' W 000°53'4013.4
2015-Jul-21 15:32N 36°50' W 001°31'1613.4
2015-Jul-21 14:20N 36°40' W 001°46'2413.2
2015-Jul-21 12:29N 36°24' W 002°08'25813.6
2015-Jul-20 17:30N 35°15' W 007°15'1213.1
2015-Jul-20 16:33N 35°07' W 007°26'1313.0
2015-Jul-20 15:33N 34°59' W 007°39'2613.0
2015-Jul-20 13:33N 34°42' W 008°03'  

Dump ship's entire track history